Weches, Texas
Current Conditions -  °F | °C
As of 12:35 PM on Sunday 21 Dec 2014 (Local Time) from KDKR Reporting Station
Overcast Overcast  
Wind Chill: 55°   Ceiling: 1900
Heat Index: 55°   Visibility: NA
Dew Point: 48°   Wind: 6mph
Humidity: 77%   Direction: 140°SE
Pressure: 30.08"   Gusts: NA
Location:  31.4982°N, 95.4177°W
Report Text: KDKR 211835Z AUTO 14005KT OVC019 13/09 A3008 RMK AO2
Loading
Personal Weather Stations






























Interactive Weather Map New forecast layout! Learn more

10-Day Weather Forecast

Advertisements
Track Severe Weather on mobile